sensor_id;sensor_type;location;lat;lon;timestamp;pressure;altitude;pressure_sealevel;temperature;humidity
56456;BME280;42354;53.218;6.564;2023-05-09T00:01:13;47192.50;;;-142.92;100.00
56456;BME280;42354;53.218;6.564;2023-05-09T00:03:39;47174.03;;;-142.92;100.00
56456;BME280;42354;53.218;6.564;2023-05-09T00:06:05;47196.59;;;-142.92;100.00
56456;BME280;42354;53.218;6.564;2023-05-09T00:08:31;47180.19;;;-142.92;100.00
56456;BME280;42354;53.218;6.564;2023-05-09T00:10:56;47198.66;;;-142.92;100.00
56456;BME280;42354;53.218;6.564;2023-05-09T00:13:21;47188.38;;;-142.92;100.00
56456;BME280;42354;53.218;6.564;2023-05-09T00:15:49;47190.44;;;-142.92;100.00
56456;BME280;42354;53.218;6.564;2023-05-09T00:18:14;47184.28;;;-142.92;100.00
56456;BME280;42354;53.218;6.564;2023-05-09T00:20:40;47198.66;;;-142.92;100.00
56456;BME280;42354;53.218;6.564;2023-05-09T00:23:06;47188.38;;;-142.92;100.00
56456;BME280;42354;53.218;6.564;2023-05-09T00:25:31;47184.28;;;-142.92;100.00
56456;BME280;42354;53.218;6.564;2023-05-09T00:27:57;47180.19;;;-142.92;100.00
56456;BME280;42354;53.218;6.564;2023-05-09T00:30:22;47190.44;;;-142.92;100.00
56456;BME280;42354;53.218;6.564;2023-05-09T00:32:48;47188.38;;;-142.92;100.00
56456;BME280;42354;53.218;6.564;2023-05-09T00:35:13;47190.44;;;-142.92;100.00
56456;BME280;42354;53.218;6.564;2023-05-09T00:37:38;47174.03;;;-142.92;100.00
56456;BME280;42354;53.218;6.564;2023-05-09T00:40:05;47186.34;;;-142.92;100.00
56456;BME280;42354;53.218;6.564;2023-05-09T00:42:32;47188.38;;;-142.92;100.00
56456;BME280;42354;53.218;6.564;2023-05-09T00:44:57;47180.19;;;-142.92;100.00
56456;BME280;42354;53.218;6.564;2023-05-09T00:47:23;47171.97;;;-142.92;100.00
56456;BME280;42354;53.218;6.564;2023-05-09T00:49:48;47184.28;;;-142.92;100.00
56456;BME280;42354;53.218;6.564;2023-05-09T00:52:14;47171.97;;;-142.92;100.00
56456;BME280;42354;53.218;6.564;2023-05-09T00:54:40;47184.28;;;-142.92;100.00
56456;BME280;42354;53.218;6.564;2023-05-09T00:57:05;47165.81;;;-142.92;100.00
56456;BME280;42354;53.218;6.564;2023-05-09T00:59:31;47169.91;;;-142.92;100.00
56456;BME280;42354;53.218;6.564;2023-05-09T01:01:56;47176.09;;;-142.92;100.00
56456;BME280;42354;53.218;6.564;2023-05-09T01:04:22;47188.38;;;-142.92;100.00
56456;BME280;42354;53.218;6.564;2023-05-09T01:09:34;47180.19;;;-142.92;100.00
56456;BME280;42354;53.218;6.564;2023-05-09T01:12:25;47186.34;;;-142.92;100.00
56456;BME280;42354;53.218;6.564;2023-05-09T01:15:07;47188.38;;;-142.92;100.00
56456;BME280;42354;53.218;6.564;2023-05-09T01:20:26;47192.50;;;-142.92;100.00
56456;BME280;42354;53.218;6.564;2023-05-09T01:23:04;47192.50;;;-142.92;100.00
56456;BME280;42354;53.218;6.564;2023-05-09T01:28:13;47192.50;;;-142.92;100.00
56456;BME280;42354;53.218;6.564;2023-05-09T01:30:43;47192.50;;;-142.92;100.00
56456;BME280;42354;53.218;6.564;2023-05-09T01:33:13;47192.50;;;-142.92;100.00
56456;BME280;42354;53.218;6.564;2023-05-09T01:35:47;47196.59;;;-142.92;100.00
56456;BME280;42354;53.218;6.564;2023-05-09T01:38:17;47200.69;;;-142.92;100.00
56456;BME280;42354;53.218;6.564;2023-05-09T01:40:46;47196.59;;;-142.92;100.00
56456;BME280;42354;53.218;6.564;2023-05-09T01:43:13;47198.66;;;-142.92;100.00
56456;BME280;42354;53.218;6.564;2023-05-09T01:45:41;47198.66;;;-142.92;100.00
56456;BME280;42354;53.218;6.564;2023-05-09T01:48:08;47200.69;;;-142.92;100.00
56456;BME280;42354;53.218;6.564;2023-05-09T01:50:36;47194.56;;;-142.92;100.00
56456;BME280;42354;53.218;6.564;2023-05-09T01:53:04;47198.66;;;-142.92;100.00
56456;BME280;42354;53.218;6.564;2023-05-09T01:55:31;47194.56;;;-142.92;100.00
56456;BME280;42354;53.218;6.564;2023-05-09T01:57:58;47198.66;;;-142.92;100.00
56456;BME280;42354;53.218;6.564;2023-05-09T02:00:24;47186.34;;;-142.92;100.00
56456;BME280;42354;53.218;6.564;2023-05-09T02:02:51;47198.66;;;-142.92;100.00
56456;BME280;42354;53.218;6.564;2023-05-09T02:05:17;47192.50;;;-142.92;100.00
56456;BME280;42354;53.218;6.564;2023-05-09T02:07:44;47200.69;;;-142.92;100.00
56456;BME280;42354;53.218;6.564;2023-05-09T02:10:11;47188.38;;;-142.92;100.00
56456;BME280;42354;53.218;6.564;2023-05-09T02:12:37;47198.66;;;-142.92;100.00
56456;BME280;42354;53.218;6.564;2023-05-09T02:15:04;47196.59;;;-142.92;100.00
56456;BME280;42354;53.218;6.564;2023-05-09T02:17:29;47200.69;;;-142.92;100.00
56456;BME280;42354;53.218;6.564;2023-05-09T02:19:56;47192.50;;;-142.92;100.00
56456;BME280;42354;53.218;6.564;2023-05-09T02:22:22;47198.66;;;-142.92;100.00
56456;BME280;42354;53.218;6.564;2023-05-09T02:24:47;47200.69;;;-142.92;100.00
56456;BME280;42354;53.218;6.564;2023-05-09T02:27:13;47196.59;;;-142.92;100.00
56456;BME280;42354;53.218;6.564;2023-05-09T02:29:46;47196.59;;;-142.92;100.00
56456;BME280;42354;53.218;6.564;2023-05-09T02:32:19;47200.69;;;-142.92;100.00
56456;BME280;42354;53.218;6.564;2023-05-09T02:34:46;47204.81;;;-142.92;100.00
56456;BME280;42354;53.218;6.564;2023-05-09T02:37:13;47194.56;;;-142.92;100.00
56456;BME280;42354;53.218;6.564;2023-05-09T02:39:39;47206.88;;;-142.92;100.00
56456;BME280;42354;53.218;6.564;2023-05-09T02:42:07;47206.88;;;-142.92;100.00
56456;BME280;42354;53.218;6.564;2023-05-09T02:44:33;47208.91;;;-142.92;100.00
56456;BME280;42354;53.218;6.564;2023-05-09T02:47:00;47192.50;;;-142.92;100.00
56456;BME280;42354;53.218;6.564;2023-05-09T02:49:26;47200.69;;;-142.92;100.00
56456;BME280;42354;53.218;6.564;2023-05-09T02:51:51;47204.81;;;-142.92;100.00
56456;BME280;42354;53.218;6.564;2023-05-09T02:54:16;47204.81;;;-142.92;100.00
56456;BME280;42354;53.218;6.564;2023-05-09T02:56:42;47196.59;;;-142.92;100.00
56456;BME280;42354;53.218;6.564;2023-05-09T02:59:07;47200.69;;;-142.92;100.00
56456;BME280;42354;53.218;6.564;2023-05-09T03:01:33;47194.56;;;-142.92;100.00
56456;BME280;42354;53.218;6.564;2023-05-09T03:03:58;47200.69;;;-142.92;100.00
56456;BME280;42354;53.218;6.564;2023-05-09T03:06:24;47188.38;;;-142.92;100.00
56456;BME280;42354;53.218;6.564;2023-05-09T03:08:49;47200.69;;;-142.92;100.00
56456;BME280;42354;53.218;6.564;2023-05-09T03:11:14;47198.66;;;-142.92;100.00
56456;BME280;42354;53.218;6.564;2023-05-09T03:13:40;47208.91;;;-142.92;100.00
56456;BME280;42354;53.218;6.564;2023-05-09T03:16:05;47204.81;;;-142.92;100.00
56456;BME280;42354;53.218;6.564;2023-05-09T03:18:31;47200.69;;;-142.92;100.00
56456;BME280;42354;53.218;6.564;2023-05-09T03:20:56;47204.81;;;-142.92;100.00
56456;BME280;42354;53.218;6.564;2023-05-09T03:23:21;47204.81;;;-142.92;100.00
56456;BME280;42354;53.218;6.564;2023-05-09T03:25:47;47204.81;;;-142.92;100.00
56456;BME280;42354;53.218;6.564;2023-05-09T03:28:13;47210.97;;;-142.92;100.00
56456;BME280;42354;53.218;6.564;2023-05-09T03:30:38;47200.69;;;-142.92;100.00
56456;BME280;42354;53.218;6.564;2023-05-09T03:33:03;47200.69;;;-142.92;100.00
56456;BME280;42354;53.218;6.564;2023-05-09T03:35:30;47196.59;;;-142.92;100.00
56456;BME280;42354;53.218;6.564;2023-05-09T03:37:55;47200.69;;;-142.92;100.00
56456;BME280;42354;53.218;6.564;2023-05-09T03:40:21;47196.59;;;-142.92;100.00
56456;BME280;42354;53.218;6.564;2023-05-09T03:42:46;47200.69;;;-142.92;100.00
56456;BME280;42354;53.218;6.564;2023-05-09T03:45:12;47194.56;;;-142.92;100.00
56456;BME280;42354;53.218;6.564;2023-05-09T03:47:37;47202.75;;;-142.92;100.00
56456;BME280;42354;53.218;6.564;2023-05-09T03:50:03;47196.59;;;-142.92;100.00
56456;BME280;42354;53.218;6.564;2023-05-09T03:52:28;47196.59;;;-142.92;100.00
56456;BME280;42354;53.218;6.564;2023-05-09T03:54:54;47204.81;;;-142.92;100.00
56456;BME280;42354;53.218;6.564;2023-05-09T03:57:19;47202.75;;;-142.92;100.00
56456;BME280;42354;53.218;6.564;2023-05-09T03:59:45;47206.88;;;-142.92;100.00
56456;BME280;42354;53.218;6.564;2023-05-09T04:02:10;47196.59;;;-142.92;100.00
56456;BME280;42354;53.218;6.564;2023-05-09T04:04:35;47196.59;;;-142.92;100.00
56456;BME280;42354;53.218;6.564;2023-05-09T04:07:01;47194.56;;;-142.92;100.00
56456;BME280;42354;53.218;6.564;2023-05-09T04:09:26;47184.28;;;-142.92;100.00
56456;BME280;42354;53.218;6.564;2023-05-09T04:11:53;47196.59;;;-142.92;100.00
56456;BME280;42354;53.218;6.564;2023-05-09T04:14:18;47192.50;;;-142.92;100.00
56456;BME280;42354;53.218;6.564;2023-05-09T04:16:43;47192.50;;;-142.92;100.00
56456;BME280;42354;53.218;6.564;2023-05-09T04:19:09;47192.50;;;-142.92;100.00
56456;BME280;42354;53.218;6.564;2023-05-09T04:21:34;47190.44;;;-142.92;100.00
56456;BME280;42354;53.218;6.564;2023-05-09T04:23:59;47192.50;;;-142.92;100.00
56456;BME280;42354;53.218;6.564;2023-05-09T04:26:25;47194.56;;;-142.92;100.00
56456;BME280;42354;53.218;6.564;2023-05-09T04:28:51;47188.38;;;-142.92;100.00
56456;BME280;42354;53.218;6.564;2023-05-09T04:31:17;47188.38;;;-142.92;100.00
56456;BME280;42354;53.218;6.564;2023-05-09T04:33:43;47192.50;;;-142.92;100.00
56456;BME280;42354;53.218;6.564;2023-05-09T04:36:09;47194.56;;;-142.92;100.00
56456;BME280;42354;53.218;6.564;2023-05-09T04:38:34;47192.50;;;-142.92;100.00
56456;BME280;42354;53.218;6.564;2023-05-09T04:41:00;47192.50;;;-142.92;100.00
56456;BME280;42354;53.218;6.564;2023-05-09T04:43:25;47194.56;;;-142.92;100.00
56456;BME280;42354;53.218;6.564;2023-05-09T04:45:52;47192.50;;;-142.92;100.00
56456;BME280;42354;53.218;6.564;2023-05-09T04:48:18;47196.59;;;-142.92;100.00
56456;BME280;42354;53.218;6.564;2023-05-09T04:50:45;47206.88;;;-142.92;100.00
56456;BME280;42354;53.218;6.564;2023-05-09T04:53:12;47194.56;;;-142.92;100.00
56456;BME280;42354;53.218;6.564;2023-05-09T04:55:38;47192.50;;;-142.92;100.00
56456;BME280;42354;53.218;6.564;2023-05-09T04:58:03;47188.38;;;-142.92;100.00
56456;BME280;42354;53.218;6.564;2023-05-09T05:00:29;47198.66;;;-142.92;100.00
56456;BME280;42354;53.218;6.564;2023-05-09T05:02:54;47200.69;;;-142.92;100.00
56456;BME280;42354;53.218;6.564;2023-05-09T05:05:19;47196.59;;;-142.92;100.00
56456;BME280;42354;53.218;6.564;2023-05-09T05:07:45;47204.81;;;-142.92;100.00
56456;BME280;42354;53.218;6.564;2023-05-09T05:10:10;47204.81;;;-142.92;100.00
56456;BME280;42354;53.218;6.564;2023-05-09T05:12:36;47204.81;;;-142.92;100.00
56456;BME280;42354;53.218;6.564;2023-05-09T05:15:01;47194.56;;;-142.92;100.00
56456;BME280;42354;53.218;6.564;2023-05-09T05:17:26;47198.66;;;-142.92;100.00
56456;BME280;42354;53.218;6.564;2023-05-09T05:19:53;47204.81;;;-142.92;100.00
56456;BME280;42354;53.218;6.564;2023-05-09T05:22:19;47200.69;;;-142.92;100.00
56456;BME280;42354;53.218;6.564;2023-05-09T05:24:44;47202.75;;;-142.92;100.00
56456;BME280;42354;53.218;6.564;2023-05-09T05:27:10;47202.75;;;-142.92;100.00
56456;BME280;42354;53.218;6.564;2023-05-09T05:29:35;47198.66;;;-142.92;100.00
56456;BME280;42354;53.218;6.564;2023-05-09T05:32:00;47200.69;;;-142.92;100.00
56456;BME280;42354;53.218;6.564;2023-05-09T05:34:26;47188.38;;;-142.92;100.00
56456;BME280;42354;53.218;6.564;2023-05-09T05:36:51;47192.50;;;-142.92;100.00
56456;BME280;42354;53.218;6.564;2023-05-09T05:39:17;47190.44;;;-142.92;100.00
56456;BME280;42354;53.218;6.564;2023-05-09T05:41:42;47200.69;;;-142.92;100.00
56456;BME280;42354;53.218;6.564;2023-05-09T05:44:07;47204.81;;;-142.92;100.00
56456;BME280;42354;53.218;6.564;2023-05-09T05:46:33;47190.44;;;-142.92;100.00
56456;BME280;42354;53.218;6.564;2023-05-09T05:48:58;47196.59;;;-142.92;100.00
56456;BME280;42354;53.218;6.564;2023-05-09T05:51:23;47198.66;;;-142.92;100.00
56456;BME280;42354;53.218;6.564;2023-05-09T05:53:49;47194.56;;;-142.92;100.00
56456;BME280;42354;53.218;6.564;2023-05-09T05:56:14;47198.66;;;-142.92;100.00
56456;BME280;42354;53.218;6.564;2023-05-09T05:58:40;47196.59;;;-142.92;100.00
56456;BME280;42354;53.218;6.564;2023-05-09T06:01:05;47196.59;;;-142.92;100.00
56456;BME280;42354;53.218;6.564;2023-05-09T06:03:30;47194.56;;;-142.92;100.00
56456;BME280;42354;53.218;6.564;2023-05-09T06:05:56;47196.59;;;-142.92;100.00
56456;BME280;42354;53.218;6.564;2023-05-09T06:08:22;47196.59;;;-142.92;100.00
56456;BME280;42354;53.218;6.564;2023-05-09T06:10:47;47190.44;;;-142.92;100.00
56456;BME280;42354;53.218;6.564;2023-05-09T06:13:12;47198.66;;;-142.92;100.00
56456;BME280;42354;53.218;6.564;2023-05-09T06:15:38;47198.66;;;-142.92;100.00
56456;BME280;42354;53.218;6.564;2023-05-09T06:18:03;47198.66;;;-142.92;100.00
56456;BME280;42354;53.218;6.564;2023-05-09T06:20:28;47196.59;;;-142.92;100.00
56456;BME280;42354;53.218;6.564;2023-05-09T06:22:54;47198.66;;;-142.92;100.00
56456;BME280;42354;53.218;6.564;2023-05-09T06:25:19;47202.75;;;-142.92;100.00
56456;BME280;42354;53.218;6.564;2023-05-09T06:27:44;47213.03;;;-142.92;100.00
56456;BME280;42354;53.218;6.564;2023-05-09T06:30:10;47200.69;;;-142.92;100.00
56456;BME280;42354;53.218;6.564;2023-05-09T06:32:35;47210.97;;;-142.92;100.00
56456;BME280;42354;53.218;6.564;2023-05-09T06:35:01;47196.59;;;-142.92;100.00
56456;BME280;42354;53.218;6.564;2023-05-09T06:37:26;47194.56;;;-142.92;100.00
56456;BME280;42354;53.218;6.564;2023-05-09T06:39:53;47182.22;;;-142.92;100.00
56456;BME280;42354;53.218;6.564;2023-05-09T06:42:18;47182.22;;;-142.92;100.00
56456;BME280;42354;53.218;6.564;2023-05-09T06:44:44;47163.75;;;-142.92;100.00
56456;BME280;42354;53.218;6.564;2023-05-09T06:47:09;47163.75;;;-142.92;100.00
56456;BME280;42354;53.218;6.564;2023-05-09T06:49:34;47139.13;;;-142.92;100.00
56456;BME280;42354;53.218;6.564;2023-05-09T06:52:00;47130.94;;;-142.92;100.00
56456;BME280;42354;53.218;6.564;2023-05-09T06:54:25;47106.31;;;-142.92;100.00
56456;BME280;42354;53.218;6.564;2023-05-09T06:56:51;47073.47;;;-142.92;100.00
56456;BME280;42354;53.218;6.564;2023-05-09T06:59:16;47079.63;;;-142.92;100.00
56456;BME280;42354;53.218;6.564;2023-05-09T07:01:42;47077.56;;;-142.92;100.00
56456;BME280;42354;53.218;6.564;2023-05-09T07:04:07;47038.59;;;-142.92;100.00
56456;BME280;42354;53.218;6.564;2023-05-09T07:06:33;47061.16;;;-142.92;100.00
56456;BME280;42354;53.218;6.564;2023-05-09T07:08:58;47026.28;;;-142.92;100.00
56456;BME280;42354;53.218;6.564;2023-05-09T07:11:23;47028.31;;;-142.92;100.00
56456;BME280;42354;53.218;6.564;2023-05-09T07:13:49;47046.78;;;-142.92;100.00
56456;BME280;42354;53.218;6.564;2023-05-09T07:16:14;47042.69;;;-142.92;100.00
56456;BME280;42354;53.218;6.564;2023-05-09T07:18:41;46993.44;;;-142.92;100.00
56456;BME280;42354;53.218;6.564;2023-05-09T07:21:07;47005.75;;;-142.92;100.00
56456;BME280;42354;53.218;6.564;2023-05-09T07:23:32;47024.22;;;-142.92;100.00
56456;BME280;42354;53.218;6.564;2023-05-09T07:25:58;47016.00;;;-142.92;100.00
56456;BME280;42354;53.218;6.564;2023-05-09T07:28:24;47024.22;;;-142.92;100.00
56456;BME280;42354;53.218;6.564;2023-05-09T07:30:50;47001.66;;;-142.92;100.00
56456;BME280;42354;53.218;6.564;2023-05-09T07:33:15;47030.38;;;-142.92;100.00
56456;BME280;42354;53.218;6.564;2023-05-09T07:35:41;46987.28;;;-142.92;100.00
56456;BME280;42354;53.218;6.564;2023-05-09T07:38:06;46962.66;;;-142.92;100.00
56456;BME280;42354;53.218;6.564;2023-05-09T07:40:32;46940.09;;;-142.92;100.00
56456;BME280;42354;53.218;6.564;2023-05-09T07:43:01;46841.59;;;-142.92;100.00
56456;BME280;42354;53.218;6.564;2023-05-09T07:45:26;46732.84;;;-142.92;100.00
56456;BME280;42354;53.218;6.564;2023-05-09T07:47:52;46921.63;;;-142.92;100.00
56456;BME280;42354;53.218;6.564;2023-05-09T07:50:17;46960.59;;;-142.92;100.00
56456;BME280;42354;53.218;6.564;2023-05-09T07:52:43;46995.50;;;-142.92;100.00
56456;BME280;42354;53.218;6.564;2023-05-09T07:55:08;46993.44;;;-142.92;100.00
56456;BME280;42354;53.218;6.564;2023-05-09T07:57:34;46991.38;;;-142.92;100.00
56456;BME280;42354;53.218;6.564;2023-05-09T07:59:59;46995.50;;;-142.92;100.00
56456;BME280;42354;53.218;6.564;2023-05-09T08:02:25;46987.28;;;-142.92;100.00
56456;BME280;42354;53.218;6.564;2023-05-09T08:04:50;47005.75;;;-142.92;100.00
56456;BME280;42354;53.218;6.564;2023-05-09T08:07:15;46995.50;;;-142.92;100.00
56456;BME280;42354;53.218;6.564;2023-05-09T08:09:41;46995.50;;;-142.92;100.00
56456;BME280;42354;53.218;6.564;2023-05-09T08:12:06;46997.53;;;-142.92;100.00
56456;BME280;42354;53.218;6.564;2023-05-09T08:14:32;46997.53;;;-142.92;100.00
56456;BME280;42354;53.218;6.564;2023-05-09T08:16:57;46985.22;;;-142.92;100.00
56456;BME280;42354;53.218;6.564;2023-05-09T08:19:23;46987.28;;;-142.92;100.00
56456;BME280;42354;53.218;6.564;2023-05-09T08:21:50;46981.13;;;-142.92;100.00
56456;BME280;42354;53.218;6.564;2023-05-09T08:24:16;46981.13;;;-142.92;100.00
56456;BME280;42354;53.218;6.564;2023-05-09T08:26:41;46991.38;;;-142.92;100.00
56456;BME280;42354;53.218;6.564;2023-05-09T08:29:06;46995.50;;;-142.92;100.00
56456;BME280;42354;53.218;6.564;2023-05-09T08:31:32;47003.69;;;-142.92;100.00
56456;BME280;42354;53.218;6.564;2023-05-09T08:33:57;46987.28;;;-142.92;100.00
56456;BME280;42354;53.218;6.564;2023-05-09T08:36:23;47001.66;;;-142.92;100.00
56456;BME280;42354;53.218;6.564;2023-05-09T08:38:49;46987.28;;;-142.92;100.00
56456;BME280;42354;53.218;6.564;2023-05-09T08:41:14;46981.13;;;-142.92;100.00
56456;BME280;42354;53.218;6.564;2023-05-09T08:43:40;46993.44;;;-142.92;100.00
56456;BME280;42354;53.218;6.564;2023-05-09T08:46:08;46991.38;;;-142.92;100.00
56456;BME280;42354;53.218;6.564;2023-05-09T08:48:35;46981.13;;;-142.92;100.00
56456;BME280;42354;53.218;6.564;2023-05-09T08:51:04;46983.19;;;-142.92;100.00
56456;BME280;42354;53.218;6.564;2023-05-09T08:53:30;47003.69;;;-142.92;100.00
56456;BME280;42354;53.218;6.564;2023-05-09T08:55:58;46995.50;;;-142.92;100.00
56456;BME280;42354;53.218;6.564;2023-05-09T08:58:24;46997.53;;;-142.92;99.79
56456;BME280;42354;53.218;6.564;2023-05-09T09:00:49;46985.22;;;-142.92;99.47
56456;BME280;42354;53.218;6.564;2023-05-09T09:03:16;46991.38;;;-142.92;99.32
56456;BME280;42354;53.218;6.564;2023-05-09T09:05:41;46997.53;;;-142.92;98.67
56456;BME280;42354;53.218;6.564;2023-05-09T09:08:08;46979.06;;;-142.92;98.17
56456;BME280;42354;53.218;6.564;2023-05-09T09:10:34;46983.19;;;-142.92;97.15
56456;BME280;42354;53.218;6.564;2023-05-09T09:13:01;46995.50;;;-142.92;95.70
56456;BME280;42354;53.218;6.564;2023-05-09T09:15:33;46995.50;;;-142.92;94.03
56456;BME280;42354;53.218;6.564;2023-05-09T09:18:05;46983.19;;;-142.92;92.66
56456;BME280;42354;53.218;6.564;2023-05-09T09:20:32;47003.69;;;-142.92;92.61
56456;BME280;42354;53.218;6.564;2023-05-09T09:22:59;46972.91;;;-142.92;92.29
56456;BME280;42354;53.218;6.564;2023-05-09T09:25:27;46993.44;;;-142.92;92.07
56456;BME280;42354;53.218;6.564;2023-05-09T09:27:54;46999.59;;;-142.92;91.66
56456;BME280;42354;53.218;6.564;2023-05-09T09:30:22;46987.28;;;-142.92;91.51
56456;BME280;42354;53.218;6.564;2023-05-09T09:32:48;46987.28;;;-142.92;91.64
56456;BME280;42354;53.218;6.564;2023-05-09T09:35:13;46991.38;;;-142.92;91.07
56456;BME280;42354;53.218;6.564;2023-05-09T09:37:39;46987.28;;;-142.92;90.33
56456;BME280;42354;53.218;6.564;2023-05-09T09:40:09;46981.13;;;-142.92;89.92
56456;BME280;42354;53.218;6.564;2023-05-09T09:42:43;46985.22;;;-142.92;89.14
56456;BME280;42354;53.218;6.564;2023-05-09T09:45:11;46995.50;;;-142.92;89.03
56456;BME280;42354;53.218;6.564;2023-05-09T09:47:38;46979.06;;;-142.92;88.65
56456;BME280;42354;53.218;6.564;2023-05-09T09:50:15;46979.06;;;-142.92;87.59
56456;BME280;42354;53.218;6.564;2023-05-09T09:53:01;46987.28;;;-142.92;88.16
56456;BME280;42354;53.218;6.564;2023-05-09T09:55:28;46987.28;;;-142.92;89.10
56456;BME280;42354;53.218;6.564;2023-05-09T09:57:53;47001.66;;;-142.92;89.00
56456;BME280;42354;53.218;6.564;2023-05-09T10:00:28;46987.28;;;-142.92;88.33
56456;BME280;42354;53.218;6.564;2023-05-09T10:02:56;46987.28;;;-142.92;88.96
56456;BME280;42354;53.218;6.564;2023-05-09T10:05:29;47003.69;;;-142.92;89.10
56456;BME280;42354;53.218;6.564;2023-05-09T10:07:56;46983.19;;;-142.92;89.76
56456;BME280;42354;53.218;6.564;2023-05-09T10:10:30;46979.06;;;-142.92;89.99
56456;BME280;42354;53.218;6.564;2023-05-09T10:13:07;46999.59;;;-142.92;89.60
56456;BME280;42354;53.218;6.564;2023-05-09T10:15:35;46999.59;;;-142.92;88.46
56456;BME280;42354;53.218;6.564;2023-05-09T10:18:01;46987.28;;;-142.92;87.19
56456;BME280;42354;53.218;6.564;2023-05-09T10:20:29;47003.69;;;-142.92;85.96
56456;BME280;42354;53.218;6.564;2023-05-09T10:22:58;46991.38;;;-142.92;84.72
56456;BME280;42354;53.218;6.564;2023-05-09T10:27:59;46999.59;;;-142.92;83.78
56456;BME280;42354;53.218;6.564;2023-05-09T10:30:40;46981.13;;;-142.92;82.11
56456;BME280;42354;53.218;6.564;2023-05-09T10:33:09;47005.75;;;-142.92;81.61
56456;BME280;42354;53.218;6.564;2023-05-09T10:35:40;46983.19;;;-142.92;80.41
56456;BME280;42354;53.218;6.564;2023-05-09T10:38:09;46979.06;;;-142.92;78.83
56456;BME280;42354;53.218;6.564;2023-05-09T10:40:36;46987.28;;;-142.92;77.26
56456;BME280;42354;53.218;6.564;2023-05-09T10:43:02;46987.28;;;-142.92;76.20
56456;BME280;42354;53.218;6.564;2023-05-09T10:45:27;46993.44;;;-142.92;75.09
56456;BME280;42354;53.218;6.564;2023-05-09T10:47:55;46997.53;;;-142.92;72.71
56456;BME280;42354;53.218;6.564;2023-05-09T10:50:21;46979.06;;;-142.92;70.79
56456;BME280;42354;53.218;6.564;2023-05-09T10:53:07;46983.19;;;-142.92;66.45
56456;BME280;42354;53.218;6.564;2023-05-09T10:55:53;46979.06;;;-142.92;66.23
56456;BME280;42354;53.218;6.564;2023-05-09T11:00:46;46983.19;;;-142.92;65.56
56456;BME280;42354;53.218;6.564;2023-05-09T11:03:12;46993.44;;;-142.92;65.23
56456;BME280;42354;53.218;6.564;2023-05-09T11:05:38;46987.28;;;-142.92;65.13
56456;BME280;42354;53.218;6.564;2023-05-09T11:08:27;46989.34;;;-142.92;65.38
56456;BME280;42354;53.218;6.564;2023-05-09T11:10:55;46987.28;;;-142.92;66.38
56456;BME280;42354;53.218;6.564;2023-05-09T11:13:24;46983.19;;;-142.92;66.12
56456;BME280;42354;53.218;6.564;2023-05-09T11:18:25;46991.38;;;-142.92;65.46
56456;BME280;42354;53.218;6.564;2023-05-09T11:20:51;46970.88;;;-142.92;64.67
56456;BME280;42354;53.218;6.564;2023-05-09T11:23:24;46985.22;;;-142.92;63.71
56456;BME280;42354;53.218;6.564;2023-05-09T11:25:50;46981.13;;;-142.92;64.11
56456;BME280;42354;53.218;6.564;2023-05-09T11:28:29;46989.34;;;-142.92;63.50
56456;BME280;42354;53.218;6.564;2023-05-09T11:31:14;46991.38;;;-142.92;63.59
56456;BME280;42354;53.218;6.564;2023-05-09T11:33:41;46999.59;;;-142.92;64.11
56456;BME280;42354;53.218;6.564;2023-05-09T11:36:16;46989.34;;;-142.92;63.71
56456;BME280;42354;53.218;6.564;2023-05-09T11:38:44;46997.53;;;-142.92;63.85
56456;BME280;42354;53.218;6.564;2023-05-09T11:41:10;46972.91;;;-142.92;63.91
56456;BME280;42354;53.218;6.564;2023-05-09T11:43:35;46983.19;;;-142.92;64.13
56456;BME280;42354;53.218;6.564;2023-05-09T11:46:02;46995.50;;;-142.92;64.34
56456;BME280;42354;53.218;6.564;2023-05-09T11:48:28;46979.06;;;-142.92;63.49
56456;BME280;42354;53.218;6.564;2023-05-09T11:50:53;46983.19;;;-142.92;63.33
56456;BME280;42354;53.218;6.564;2023-05-09T11:53:18;46993.44;;;-142.92;62.88
56456;BME280;42354;53.218;6.564;2023-05-09T11:55:44;46985.22;;;-142.92;61.93
56456;BME280;42354;53.218;6.564;2023-05-09T11:58:10;46989.34;;;-142.92;61.73
56456;BME280;42354;53.218;6.564;2023-05-09T12:00:43;46989.34;;;-142.92;60.26
56456;BME280;42354;53.218;6.564;2023-05-09T12:03:09;46987.28;;;-142.92;60.86
56456;BME280;42354;53.218;6.564;2023-05-09T12:05:35;46985.22;;;-142.92;60.11
56456;BME280;42354;53.218;6.564;2023-05-09T12:08:05;46974.97;;;-142.92;60.14
56456;BME280;42354;53.218;6.564;2023-05-09T12:10:30;46987.28;;;-142.92;60.18
56456;BME280;42354;53.218;6.564;2023-05-09T12:12:56;46987.28;;;-142.92;59.81
56456;BME280;42354;53.218;6.564;2023-05-09T12:15:22;46983.19;;;-142.92;59.78
56456;BME280;42354;53.218;6.564;2023-05-09T12:18:00;46983.19;;;-142.92;58.07
56456;BME280;42354;53.218;6.564;2023-05-09T12:20:27;46981.13;;;-142.92;58.42
56456;BME280;42354;53.218;6.564;2023-05-09T12:22:52;46987.28;;;-142.92;58.02
56456;BME280;42354;53.218;6.564;2023-05-09T12:25:18;46966.75;;;-142.92;57.72
56456;BME280;42354;53.218;6.564;2023-05-09T12:27:44;46989.34;;;-142.92;57.21
56456;BME280;42354;53.218;6.564;2023-05-09T12:30:10;46983.19;;;-142.92;56.75
56456;BME280;42354;53.218;6.564;2023-05-09T12:32:38;46981.13;;;-142.92;56.43
56456;BME280;42354;53.218;6.564;2023-05-09T12:35:06;46985.22;;;-142.92;56.32
56456;BME280;42354;53.218;6.564;2023-05-09T12:37:32;46983.19;;;-142.92;56.06
56456;BME280;42354;53.218;6.564;2023-05-09T12:40:11;46985.22;;;-142.92;57.08
56456;BME280;42354;53.218;6.564;2023-05-09T12:42:42;46987.28;;;-142.92;57.40
56456;BME280;42354;53.218;6.564;2023-05-09T12:45:09;46987.28;;;-142.92;55.86
56456;BME280;42354;53.218;6.564;2023-05-09T12:47:34;46989.34;;;-142.92;57.57